sensor_id;sensor_type;location;lat;lon;timestamp;pressure;altitude;pressure_sealevel;temperature;humidity
6942;BME280;3510;43.200;27.920;2024-01-16T00:02:01;99536.38;;;9.05;100.00
6942;BME280;3510;43.200;27.920;2024-01-16T00:04:28;99533.06;;;9.18;100.00
6942;BME280;3510;43.200;27.920;2024-01-16T00:06:55;99529.13;;;9.21;100.00
6942;BME280;3510;43.200;27.920;2024-01-16T00:09:22;99531.09;;;9.14;100.00
6942;BME280;3510;43.200;27.920;2024-01-16T00:11:49;99517.03;;;9.16;100.00
6942;BME280;3510;43.200;27.920;2024-01-16T00:14:15;99526.97;;;9.14;100.00
6942;BME280;3510;43.200;27.920;2024-01-16T00:16:44;99545.34;;;9.38;100.00
6942;BME280;3510;43.200;27.920;2024-01-16T00:19:12;99509.22;;;9.36;100.00
6942;BME280;3510;43.200;27.920;2024-01-16T00:21:39;99536.38;;;9.67;100.00
6942;BME280;3510;43.200;27.920;2024-01-16T00:24:06;99518.22;;;9.71;100.00
6942;BME280;3510;43.200;27.920;2024-01-16T00:26:33;99505.16;;;9.63;100.00
6942;BME280;3510;43.200;27.920;2024-01-16T00:29:00;99507.56;;;9.62;100.00
6942;BME280;3510;43.200;27.920;2024-01-16T00:31:27;99529.59;;;9.66;100.00
6942;BME280;3510;43.200;27.920;2024-01-16T00:33:55;99521.56;;;9.58;100.00
6942;BME280;3510;43.200;27.920;2024-01-16T00:36:22;99519.25;;;9.61;100.00
6942;BME280;3510;43.200;27.920;2024-01-16T00:38:48;99511.53;;;9.58;100.00
6942;BME280;3510;43.200;27.920;2024-01-16T00:41:15;99518.19;;;9.58;100.00
6942;BME280;3510;43.200;27.920;2024-01-16T00:43:43;99517.97;;;9.55;100.00
6942;BME280;3510;43.200;27.920;2024-01-16T00:46:10;99503.63;;;9.40;100.00
6942;BME280;3510;43.200;27.920;2024-01-16T00:48:37;99474.13;;;9.25;100.00
6942;BME280;3510;43.200;27.920;2024-01-16T00:51:05;99502.84;;;9.41;100.00
6942;BME280;3510;43.200;27.920;2024-01-16T00:53:31;99501.97;;;9.41;100.00
6942;BME280;3510;43.200;27.920;2024-01-16T00:55:58;99501.59;;;9.35;100.00
6942;BME280;3510;43.200;27.920;2024-01-16T00:58:25;99475.41;;;9.31;100.00
6942;BME280;3510;43.200;27.920;2024-01-16T01:00:52;99465.03;;;9.27;100.00
6942;BME280;3510;43.200;27.920;2024-01-16T01:03:19;99487.25;;;9.45;100.00
6942;BME280;3510;43.200;27.920;2024-01-16T01:05:46;99482.03;;;9.42;100.00
6942;BME280;3510;43.200;27.920;2024-01-16T01:08:14;99477.56;;;9.38;100.00
6942;BME280;3510;43.200;27.920;2024-01-16T01:10:41;99464.69;;;9.34;100.00
6942;BME280;3510;43.200;27.920;2024-01-16T01:13:08;99457.97;;;9.21;100.00
6942;BME280;3510;43.200;27.920;2024-01-16T01:15:34;99457.91;;;9.08;100.00
6942;BME280;3510;43.200;27.920;2024-01-16T01:18:01;99459.41;;;8.81;100.00
6942;BME280;3510;43.200;27.920;2024-01-16T01:20:29;99456.09;;;8.93;100.00
6942;BME280;3510;43.200;27.920;2024-01-16T01:22:56;99444.72;;;9.10;100.00
6942;BME280;3510;43.200;27.920;2024-01-16T01:25:25;99451.97;;;9.19;100.00
6942;BME280;3510;43.200;27.920;2024-01-16T01:27:52;99437.97;;;9.09;100.00
6942;BME280;3510;43.200;27.920;2024-01-16T01:30:19;99433.34;;;8.90;100.00
6942;BME280;3510;43.200;27.920;2024-01-16T01:32:46;99451.50;;;9.00;100.00
6942;BME280;3510;43.200;27.920;2024-01-16T01:35:12;99453.06;;;8.98;100.00
6942;BME280;3510;43.200;27.920;2024-01-16T01:37:39;99450.56;;;8.98;100.00
6942;BME280;3510;43.200;27.920;2024-01-16T01:40:07;99453.81;;;8.96;100.00
6942;BME280;3510;43.200;27.920;2024-01-16T01:42:35;99445.66;;;8.87;100.00
6942;BME280;3510;43.200;27.920;2024-01-16T01:45:05;99430.44;;;8.72;100.00
6942;BME280;3510;43.200;27.920;2024-01-16T01:47:32;99443.19;;;8.76;100.00
6942;BME280;3510;43.200;27.920;2024-01-16T01:49:59;99439.03;;;8.76;100.00
6942;BME280;3510;43.200;27.920;2024-01-16T01:52:26;99437.84;;;8.71;100.00
6942;BME280;3510;43.200;27.920;2024-01-16T01:54:53;99434.47;;;8.70;100.00
6942;BME280;3510;43.200;27.920;2024-01-16T01:57:20;99429.78;;;8.63;100.00
6942;BME280;3510;43.200;27.920;2024-01-16T01:59:48;99426.97;;;8.59;100.00
6942;BME280;3510;43.200;27.920;2024-01-16T02:02:15;99435.25;;;8.34;100.00
6942;BME280;3510;43.200;27.920;2024-01-16T02:04:45;99431.34;;;8.38;100.00
6942;BME280;3510;43.200;27.920;2024-01-16T02:07:12;99418.72;;;8.48;100.00
6942;BME280;3510;43.200;27.920;2024-01-16T02:09:40;99410.63;;;8.52;100.00
6942;BME280;3510;43.200;27.920;2024-01-16T02:12:07;99415.00;;;8.55;100.00
6942;BME280;3510;43.200;27.920;2024-01-16T02:14:33;99381.88;;;8.35;100.00
6942;BME280;3510;43.200;27.920;2024-01-16T02:17:01;99416.22;;;8.85;100.00
6942;BME280;3510;43.200;27.920;2024-01-16T02:19:28;99398.41;;;8.93;100.00
6942;BME280;3510;43.200;27.920;2024-01-16T02:21:59;99399.81;;;9.02;100.00
6942;BME280;3510;43.200;27.920;2024-01-16T02:24:28;99438.81;;;9.10;100.00
6942;BME280;3510;43.200;27.920;2024-01-16T02:26:55;99435.00;;;8.78;100.00
6942;BME280;3510;43.200;27.920;2024-01-16T02:29:22;99425.13;;;8.68;100.00
6942;BME280;3510;43.200;27.920;2024-01-16T02:31:49;99428.88;;;8.75;100.00
6942;BME280;3510;43.200;27.920;2024-01-16T02:34:16;99440.66;;;8.87;100.00
6942;BME280;3510;43.200;27.920;2024-01-16T02:36:43;99433.16;;;8.64;100.00
6942;BME280;3510;43.200;27.920;2024-01-16T02:39:10;99432.63;;;8.56;100.00
6942;BME280;3510;43.200;27.920;2024-01-16T02:41:38;99433.94;;;8.63;100.00
6942;BME280;3510;43.200;27.920;2024-01-16T02:44:04;99431.78;;;8.56;100.00
6942;BME280;3510;43.200;27.920;2024-01-16T02:46:31;99425.78;;;8.54;100.00
6942;BME280;3510;43.200;27.920;2024-01-16T02:48:59;99421.53;;;8.53;100.00
6942;BME280;3510;43.200;27.920;2024-01-16T02:51:26;99424.50;;;8.47;100.00
6942;BME280;3510;43.200;27.920;2024-01-16T02:53:53;99434.28;;;8.20;100.00
6942;BME280;3510;43.200;27.920;2024-01-16T02:56:19;99421.97;;;8.00;100.00
6942;BME280;3510;43.200;27.920;2024-01-16T02:58:47;99430.25;;;8.11;100.00
6942;BME280;3510;43.200;27.920;2024-01-16T03:01:14;99428.75;;;8.01;100.00
6942;BME280;3510;43.200;27.920;2024-01-16T03:03:41;99415.22;;;7.99;100.00
6942;BME280;3510;43.200;27.920;2024-01-16T03:06:08;99411.84;;;8.10;100.00
6942;BME280;3510;43.200;27.920;2024-01-16T03:08:35;99409.03;;;8.06;100.00
6942;BME280;3510;43.200;27.920;2024-01-16T03:11:02;99424.84;;;8.05;100.00
6942;BME280;3510;43.200;27.920;2024-01-16T03:13:28;99422.41;;;8.06;100.00
6942;BME280;3510;43.200;27.920;2024-01-16T03:15:56;99428.94;;;7.92;100.00
6942;BME280;3510;43.200;27.920;2024-01-16T03:18:23;99421.09;;;7.76;100.00
6942;BME280;3510;43.200;27.920;2024-01-16T03:20:50;99422.41;;;7.83;100.00
6942;BME280;3510;43.200;27.920;2024-01-16T03:23:16;99427.84;;;7.77;100.00
6942;BME280;3510;43.200;27.920;2024-01-16T03:25:43;99428.94;;;7.81;100.00
6942;BME280;3510;43.200;27.920;2024-01-16T03:28:10;99418.16;;;7.93;100.00
6942;BME280;3510;43.200;27.920;2024-01-16T03:30:36;99443.56;;;8.10;100.00
6942;BME280;3510;43.200;27.920;2024-01-16T03:33:04;99430.03;;;7.84;100.00
6942;BME280;3510;43.200;27.920;2024-01-16T03:35:31;99430.69;;;7.93;100.00
6942;BME280;3510;43.200;27.920;2024-01-16T03:37:58;99440.59;;;7.92;100.00
6942;BME280;3510;43.200;27.920;2024-01-16T03:40:25;99415.09;;;7.86;100.00
6942;BME280;3510;43.200;27.920;2024-01-16T03:42:51;99449.66;;;8.02;100.00
6942;BME280;3510;43.200;27.920;2024-01-16T03:45:18;99456.94;;;7.98;100.00
6942;BME280;3510;43.200;27.920;2024-01-16T03:47:45;99455.16;;;7.86;100.00
6942;BME280;3510;43.200;27.920;2024-01-16T03:50:13;99463.91;;;7.79;100.00
6942;BME280;3510;43.200;27.920;2024-01-16T03:52:40;99461.22;;;7.54;100.00
6942;BME280;3510;43.200;27.920;2024-01-16T03:55:07;99471.31;;;7.56;100.00
6942;BME280;3510;43.200;27.920;2024-01-16T03:57:34;99479.88;;;7.36;100.00
6942;BME280;3510;43.200;27.920;2024-01-16T04:00:01;99470.94;;;7.27;100.00
6942;BME280;3510;43.200;27.920;2024-01-16T04:02:30;99481.09;;;7.19;100.00
6942;BME280;3510;43.200;27.920;2024-01-16T04:04:57;99489.31;;;7.06;100.00
6942;BME280;3510;43.200;27.920;2024-01-16T04:07:26;99485.50;;;6.89;100.00
6942;BME280;3510;43.200;27.920;2024-01-16T04:09:53;99491.41;;;6.90;100.00
6942;BME280;3510;43.200;27.920;2024-01-16T04:12:20;99501.16;;;6.87;100.00
6942;BME280;3510;43.200;27.920;2024-01-16T04:14:46;99480.41;;;6.55;100.00
6942;BME280;3510;43.200;27.920;2024-01-16T04:17:13;99479.69;;;6.46;100.00
6942;BME280;3510;43.200;27.920;2024-01-16T04:19:40;99500.38;;;6.55;100.00
6942;BME280;3510;43.200;27.920;2024-01-16T04:22:07;99490.31;;;6.44;100.00
6942;BME280;3510;43.200;27.920;2024-01-16T04:24:35;99528.66;;;6.54;100.00
6942;BME280;3510;43.200;27.920;2024-01-16T04:27:02;99529.06;;;6.49;100.00
6942;BME280;3510;43.200;27.920;2024-01-16T04:29:29;99538.38;;;6.51;100.00
6942;BME280;3510;43.200;27.920;2024-01-16T04:31:56;99536.41;;;6.47;100.00
6942;BME280;3510;43.200;27.920;2024-01-16T04:34:23;99535.13;;;6.52;100.00
6942;BME280;3510;43.200;27.920;2024-01-16T04:36:50;99555.59;;;6.69;100.00
6942;BME280;3510;43.200;27.920;2024-01-16T04:39:16;99550.19;;;6.74;100.00
6942;BME280;3510;43.200;27.920;2024-01-16T04:41:45;99545.09;;;6.73;100.00
6942;BME280;3510;43.200;27.920;2024-01-16T04:44:11;99521.56;;;6.49;100.00
6942;BME280;3510;43.200;27.920;2024-01-16T04:46:38;99565.31;;;6.76;100.00
6942;BME280;3510;43.200;27.920;2024-01-16T04:49:05;99550.34;;;6.66;100.00
6942;BME280;3510;43.200;27.920;2024-01-16T04:51:30;99577.56;;;6.83;100.00
6942;BME280;3510;43.200;27.920;2024-01-16T04:53:57;99590.16;;;6.85;100.00
6942;BME280;3510;43.200;27.920;2024-01-16T04:56:24;99540.53;;;6.47;100.00
6942;BME280;3510;43.200;27.920;2024-01-16T04:58:52;99578.97;;;6.59;100.00
6942;BME280;3510;43.200;27.920;2024-01-16T05:01:19;99597.63;;;6.42;100.00
6942;BME280;3510;43.200;27.920;2024-01-16T05:03:46;99601.63;;;6.30;100.00
6942;BME280;3510;43.200;27.920;2024-01-16T05:06:13;99573.31;;;5.99;100.00
6942;BME280;3510;43.200;27.920;2024-01-16T05:08:40;99603.88;;;6.06;100.00
6942;BME280;3510;43.200;27.920;2024-01-16T05:11:08;99592.34;;;5.88;100.00
6942;BME280;3510;43.200;27.920;2024-01-16T05:13:34;99601.97;;;5.83;100.00
6942;BME280;3510;43.200;27.920;2024-01-16T05:16:03;99614.06;;;5.89;100.00
6942;BME280;3510;43.200;27.920;2024-01-16T05:18:30;99626.94;;;5.83;100.00
6942;BME280;3510;43.200;27.920;2024-01-16T05:20:58;99618.53;;;5.73;100.00
6942;BME280;3510;43.200;27.920;2024-01-16T05:23:24;99646.63;;;5.80;100.00
6942;BME280;3510;43.200;27.920;2024-01-16T05:25:51;99629.66;;;5.76;100.00
6942;BME280;3510;43.200;27.920;2024-01-16T05:28:19;99597.06;;;5.65;100.00
6942;BME280;3510;43.200;27.920;2024-01-16T05:30:45;99653.31;;;6.11;100.00
6942;BME280;3510;43.200;27.920;2024-01-16T05:33:13;99605.34;;;5.84;100.00
6942;BME280;3510;43.200;27.920;2024-01-16T05:35:41;99660.19;;;6.03;100.00
6942;BME280;3510;43.200;27.920;2024-01-16T05:38:07;99666.31;;;6.06;100.00
6942;BME280;3510;43.200;27.920;2024-01-16T05:40:34;99682.31;;;6.09;100.00
6942;BME280;3510;43.200;27.920;2024-01-16T05:43:01;99677.41;;;6.00;100.00
6942;BME280;3510;43.200;27.920;2024-01-16T05:45:28;99678.28;;;6.00;100.00
6942;BME280;3510;43.200;27.920;2024-01-16T05:47:55;99690.03;;;6.12;100.00
6942;BME280;3510;43.200;27.920;2024-01-16T05:50:23;99645.78;;;5.90;100.00
6942;BME280;3510;43.200;27.920;2024-01-16T05:52:50;99705.78;;;6.21;100.00
6942;BME280;3510;43.200;27.920;2024-01-16T05:55:16;99698.81;;;6.27;100.00
6942;BME280;3510;43.200;27.920;2024-01-16T05:57:43;99700.16;;;6.34;100.00
6942;BME280;3510;43.200;27.920;2024-01-16T06:00:11;99701.44;;;6.59;100.00
6942;BME280;3510;43.200;27.920;2024-01-16T06:02:38;99710.78;;;6.82;100.00
6942;BME280;3510;43.200;27.920;2024-01-16T06:05:06;99712.66;;;7.05;100.00
6942;BME280;3510;43.200;27.920;2024-01-16T06:07:35;99731.41;;;7.52;100.00
6942;BME280;3510;43.200;27.920;2024-01-16T06:10:01;99754.56;;;7.82;100.00
6942;BME280;3510;43.200;27.920;2024-01-16T06:12:28;99720.50;;;7.84;100.00
6942;BME280;3510;43.200;27.920;2024-01-16T06:14:55;99785.13;;;8.10;100.00
6942;BME280;3510;43.200;27.920;2024-01-16T06:17:23;99762.66;;;7.68;100.00
6942;BME280;3510;43.200;27.920;2024-01-16T06:19:52;99793.72;;;7.92;100.00
6942;BME280;3510;43.200;27.920;2024-01-16T06:22:19;99806.84;;;7.99;100.00
6942;BME280;3510;43.200;27.920;2024-01-16T06:24:47;99775.09;;;7.88;100.00
6942;BME280;3510;43.200;27.920;2024-01-16T06:27:14;99811.69;;;8.08;100.00
6942;BME280;3510;43.200;27.920;2024-01-16T06:29:44;99808.16;;;8.16;100.00
6942;BME280;3510;43.200;27.920;2024-01-16T06:32:11;99804.59;;;8.24;100.00
6942;BME280;3510;43.200;27.920;2024-01-16T06:34:38;99815.75;;;8.28;100.00
6942;BME280;3510;43.200;27.920;2024-01-16T06:37:05;99817.72;;;8.32;100.00
6942;BME280;3510;43.200;27.920;2024-01-16T06:39:33;99814.44;;;8.33;100.00
6942;BME280;3510;43.200;27.920;2024-01-16T06:51:46;99865.06;;;8.50;100.00
6942;BME280;3510;43.200;27.920;2024-01-16T06:54:13;99867.56;;;8.50;100.00
6942;BME280;3510;43.200;27.920;2024-01-16T06:56:39;99891.09;;;8.52;100.00
6942;BME280;3510;43.200;27.920;2024-01-16T06:59:06;99898.91;;;8.44;100.00
6942;BME280;3510;43.200;27.920;2024-01-16T07:01:34;99908.69;;;8.41;100.00
6942;BME280;3510;43.200;27.920;2024-01-16T07:04:01;99927.25;;;8.43;100.00
6942;BME280;3510;43.200;27.920;2024-01-16T07:06:27;99918.22;;;8.35;100.00
6942;BME280;3510;43.200;27.920;2024-01-16T07:08:56;99943.13;;;8.54;100.00
6942;BME280;3510;43.200;27.920;2024-01-16T07:11:23;99959.56;;;8.51;100.00
6942;BME280;3510;43.200;27.920;2024-01-16T07:13:49;99953.00;;;8.53;100.00
6942;BME280;3510;43.200;27.920;2024-01-16T07:16:16;99951.19;;;8.40;100.00
6942;BME280;3510;43.200;27.920;2024-01-16T07:18:42;99958.03;;;8.53;100.00
6942;BME280;3510;43.200;27.920;2024-01-16T07:21:17;99968.25;;;8.66;100.00
6942;BME280;3510;43.200;27.920;2024-01-16T07:30:34;99954.22;;;8.15;100.00
6942;BME280;3510;43.200;27.920;2024-01-16T07:33:15;99979.94;;;8.13;100.00
6942;BME280;3510;43.200;27.920;2024-01-16T07:35:56;99991.34;;;7.99;100.00
6942;BME280;3510;43.200;27.920;2024-01-16T07:38:37;99978.59;;;7.75;100.00
6942;BME280;3510;43.200;27.920;2024-01-16T07:41:04;99997.09;;;7.67;100.00
6942;BME280;3510;43.200;27.920;2024-01-16T07:43:31;99993.59;;;7.55;100.00
6942;BME280;3510;43.200;27.920;2024-01-16T07:45:59;100022.75;;;7.44;100.00
6942;BME280;3510;43.200;27.920;2024-01-16T07:48:27;99994.81;;;7.30;100.00
6942;BME280;3510;43.200;27.920;2024-01-16T07:51:07;100026.34;;;7.38;100.00
6942;BME280;3510;43.200;27.920;2024-01-16T07:53:34;100040.63;;;7.28;100.00
6942;BME280;3510;43.200;27.920;2024-01-16T07:56:01;100034.59;;;7.16;100.00
6942;BME280;3510;43.200;27.920;2024-01-16T07:58:28;100050.88;;;6.92;100.00
6942;BME280;3510;43.200;27.920;2024-01-16T08:00:56;100070.47;;;7.17;100.00
6942;BME280;3510;43.200;27.920;2024-01-16T08:03:35;100043.91;;;6.98;100.00
6942;BME280;3510;43.200;27.920;2024-01-16T08:06:03;100076.19;;;7.06;100.00
6942;BME280;3510;43.200;27.920;2024-01-16T08:08:30;100081.75;;;6.93;100.00
6942;BME280;3510;43.200;27.920;2024-01-16T08:10:59;100089.47;;;6.86;100.00
6942;BME280;3510;43.200;27.920;2024-01-16T08:13:26;100104.06;;;6.81;100.00
6942;BME280;3510;43.200;27.920;2024-01-16T08:15:53;100092.47;;;6.63;100.00
6942;BME280;3510;43.200;27.920;2024-01-16T08:18:21;100132.19;;;6.60;100.00
6942;BME280;3510;43.200;27.920;2024-01-16T08:20:49;100151.19;;;6.58;100.00
6942;BME280;3510;43.200;27.920;2024-01-16T08:23:17;100131.78;;;6.36;100.00
6942;BME280;3510;43.200;27.920;2024-01-16T08:25:46;100056.25;;;5.92;100.00
6942;BME280;3510;43.200;27.920;2024-01-16T08:28:13;100026.63;;;5.78;100.00
6942;BME280;3510;43.200;27.920;2024-01-16T08:30:41;100158.50;;;6.37;100.00
6942;BME280;3510;43.200;27.920;2024-01-16T08:33:07;100188.13;;;6.24;100.00
6942;BME280;3510;43.200;27.920;2024-01-16T08:35:34;100191.84;;;6.46;100.00
6942;BME280;3510;43.200;27.920;2024-01-16T08:38:03;100208.25;;;6.25;100.00
6942;BME280;3510;43.200;27.920;2024-01-16T08:40:30;100188.31;;;6.17;100.00
6942;BME280;3510;43.200;27.920;2024-01-16T08:42:58;100182.25;;;6.23;100.00
6942;BME280;3510;43.200;27.920;2024-01-16T08:45:25;100184.59;;;6.22;100.00
6942;BME280;3510;43.200;27.920;2024-01-16T08:47:52;100212.25;;;6.23;100.00
6942;BME280;3510;43.200;27.920;2024-01-16T08:50:19;100145.78;;;5.89;100.00
6942;BME280;3510;43.200;27.920;2024-01-16T08:52:46;100210.44;;;6.31;100.00
6942;BME280;3510;43.200;27.920;2024-01-16T08:55:14;100207.94;;;6.31;100.00
6942;BME280;3510;43.200;27.920;2024-01-16T08:57:41;100171.38;;;5.95;100.00
6942;BME280;3510;43.200;27.920;2024-01-16T09:00:08;100171.44;;;5.69;100.00
6942;BME280;3510;43.200;27.920;2024-01-16T09:02:36;100232.41;;;6.16;100.00
6942;BME280;3510;43.200;27.920;2024-01-16T09:05:04;100236.00;;;6.01;100.00
6942;BME280;3510;43.200;27.920;2024-01-16T09:07:31;100255.81;;;5.99;100.00
6942;BME280;3510;43.200;27.920;2024-01-16T09:09:59;100257.13;;;6.04;100.00
6942;BME280;3510;43.200;27.920;2024-01-16T09:12:28;100153.00;;;5.41;100.00
6942;BME280;3510;43.200;27.920;2024-01-16T09:14:55;100252.31;;;5.97;100.00
6942;BME280;3510;43.200;27.920;2024-01-16T09:17:23;100222.47;;;5.90;100.00
6942;BME280;3510;43.200;27.920;2024-01-16T09:19:51;100142.16;;;5.49;100.00
6942;BME280;3510;43.200;27.920;2024-01-16T09:22:19;100131.63;;;5.34;100.00
6942;BME280;3510;43.200;27.920;2024-01-16T09:24:46;100275.84;;;6.27;100.00
6942;BME280;3510;43.200;27.920;2024-01-16T09:27:13;100226.13;;;6.02;100.00
6942;BME280;3510;43.200;27.920;2024-01-16T09:29:43;100311.38;;;6.33;100.00
6942;BME280;3510;43.200;27.920;2024-01-16T09:32:11;100257.41;;;6.44;100.00
6942;BME280;3510;43.200;27.920;2024-01-16T09:34:38;100293.00;;;6.69;100.00
6942;BME280;3510;43.200;27.920;2024-01-16T09:37:05;100248.66;;;6.58;100.00
6942;BME280;3510;43.200;27.920;2024-01-16T09:39:33;100260.63;;;6.70;100.00
6942;BME280;3510;43.200;27.920;2024-01-16T09:42:03;100254.56;;;6.77;100.00
6942;BME280;3510;43.200;27.920;2024-01-16T09:44:31;100251.00;;;6.84;100.00
6942;BME280;3510;43.200;27.920;2024-01-16T09:47:01;100290.47;;;6.96;100.00
6942;BME280;3510;43.200;27.920;2024-01-16T09:49:30;100239.06;;;6.90;100.00
6942;BME280;3510;43.200;27.920;2024-01-16T09:51:57;100257.00;;;6.86;100.00
6942;BME280;3510;43.200;27.920;2024-01-16T09:54:27;100125.34;;;6.29;100.00
6942;BME280;3510;43.200;27.920;2024-01-16T09:56:58;100177.81;;;6.57;100.00
6942;BME280;3510;43.200;27.920;2024-01-16T09:59:26;100251.88;;;7.03;100.00
6942;BME280;3510;43.200;27.920;2024-01-16T10:01:56;100292.19;;;7.25;100.00
6942;BME280;3510;43.200;27.920;2024-01-16T10:04:25;100255.13;;;7.40;100.00
6942;BME280;3510;43.200;27.920;2024-01-16T10:06:54;100284.94;;;7.47;100.00
6942;BME280;3510;43.200;27.920;2024-01-16T10:09:23;100257.72;;;7.31;100.00
6942;BME280;3510;43.200;27.920;2024-01-16T10:11:50;100290.28;;;7.60;100.00
6942;BME280;3510;43.200;27.920;2024-01-16T10:14:18;100281.34;;;7.72;100.00
6942;BME280;3510;43.200;27.920;2024-01-16T10:16:56;100288.03;;;7.92;100.00
6942;BME280;3510;43.200;27.920;2024-01-16T10:19:27;100317.06;;;8.09;100.00
6942;BME280;3510;43.200;27.920;2024-01-16T10:22:01;100289.88;;;8.14;100.00
6942;BME280;3510;43.200;27.920;2024-01-16T10:24:28;100252.63;;;8.08;100.00
6942;BME280;3510;43.200;27.920;2024-01-16T10:26:58;100290.13;;;8.46;100.00
6942;BME280;3510;43.200;27.920;2024-01-16T10:29:28;100268.38;;;8.36;100.00
6942;BME280;3510;43.200;27.920;2024-01-16T10:31:56;100298.06;;;8.61;100.00
6942;BME280;3510;43.200;27.920;2024-01-16T10:34:23;100287.53;;;8.65;100.00
6942;BME280;3510;43.200;27.920;2024-01-16T10:36:58;100294.41;;;8.67;100.00
6942;BME280;3510;43.200;27.920;2024-01-16T10:39:25;100271.38;;;8.71;100.00
6942;BME280;3510;43.200;27.920;2024-01-16T10:41:56;100286.91;;;8.78;100.00
6942;BME280;3510;43.200;27.920;2024-01-16T10:44:24;100278.22;;;8.64;100.00
6942;BME280;3510;43.200;27.920;2024-01-16T10:46:56;100306.59;;;9.04;100.00
6942;BME280;3510;43.200;27.920;2024-01-16T10:49:36;100308.50;;;9.16;100.00
6942;BME280;3510;43.200;27.920;2024-01-16T10:52:09;100333.44;;;9.25;100.00
6942;BME280;3510;43.200;27.920;2024-01-16T10:54:41;100326.19;;;9.28;100.00
6942;BME280;3510;43.200;27.920;2024-01-16T10:57:10;100326.94;;;9.27;100.00
6942;BME280;3510;43.200;27.920;2024-01-16T10:59:40;100313.88;;;9.31;100.00
6942;BME280;3510;43.200;27.920;2024-01-16T11:02:10;100344.59;;;9.49;100.00
6942;BME280;3510;43.200;27.920;2024-01-16T11:04:41;100319.72;;;9.62;100.00
6942;BME280;3510;43.200;27.920;2024-01-16T11:07:10;100327.88;;;9.60;100.00
6942;BME280;3510;43.200;27.920;2024-01-16T11:09:40;100357.53;;;9.54;100.00
6942;BME280;3510;43.200;27.920;2024-01-16T11:12:08;100350.00;;;9.43;100.00
6942;BME280;3510;43.200;27.920;2024-01-16T11:14:37;100343.75;;;9.28;100.00
6942;BME280;3510;43.200;27.920;2024-01-16T11:17:05;100303.56;;;9.28;100.00
6942;BME280;3510;43.200;27.920;2024-01-16T11:19:33;100352.00;;;9.68;100.00
6942;BME280;3510;43.200;27.920;2024-01-16T11:22:00;100361.03;;;9.66;100.00
6942;BME280;3510;43.200;27.920;2024-01-16T11:24:31;100369.06;;;9.72;99.04
6942;BME280;3510;43.200;27.920;2024-01-16T11:26:58;100369.06;;;9.62;98.10
6942;BME280;3510;43.200;27.920;2024-01-16T11:29:37;100375.44;;;9.79;98.06
6942;BME280;3510;43.200;27.920;2024-01-16T11:32:04;100373.34;;;9.53;97.65
6942;BME280;3510;43.200;27.920;2024-01-16T11:34:53;100397.69;;;9.74;97.36
6942;BME280;3510;43.200;27.920;2024-01-16T11:37:27;100384.88;;;9.71;97.13
6942;BME280;3510;43.200;27.920;2024-01-16T11:42:53;100401.69;;;9.82;72.71
6942;BME280;3510;43.200;27.920;2024-01-16T11:48:14;100391.06;;;9.54;70.56
6942;BME280;3510;43.200;27.920;2024-01-16T11:50:42;100432.75;;;9.62;76.20
6942;BME280;3510;43.200;27.920;2024-01-16T11:53:09;100434.50;;;9.33;81.87
6942;BME280;3510;43.200;27.920;2024-01-16T11:55:49;100444.16;;;9.28;89.70
6942;BME280;3510;43.200;27.920;2024-01-16T12:24:18;100540.94;;;8.10;100.00
6942;BME280;3510;43.200;27.920;2024-01-16T12:26:59;100510.72;;;8.08;100.00
6942;BME280;3510;43.200;27.920;2024-01-16T12:29:25;100423.91;;;7.71;100.00
6942;BME280;3510;43.200;27.920;2024-01-16T12:32:05;100538.66;;;8.59;100.00
6942;BME280;3510;43.200;27.920;2024-01-16T12:34:33;100553.44;;;8.75;100.00
6942;BME280;3510;43.200;27.920;2024-01-16T12:37:04;100562.13;;;8.89;100.00
6942;BME280;3510;43.200;27.920;2024-01-16T12:39:33;100563.22;;;8.82;100.00
6942;BME280;3510;43.200;27.920;2024-01-16T12:42:01;100603.44;;;8.92;100.00
6942;BME280;3510;43.200;27.920;2024-01-16T12:44:28;100599.38;;;8.84;100.00
6942;BME280;3510;43.200;27.920;2024-01-16T12:46:56;100599.28;;;8.93;100.00
6942;BME280;3510;43.200;27.920;2024-01-16T12:49:23;100579.78;;;8.80;100.00
6942;BME280;3510;43.200;27.920;2024-01-16T12:51:50;100582.56;;;8.83;100.00
6942;BME280;3510;43.200;27.920;2024-01-16T12:54:19;100560.56;;;8.52;100.00
6942;BME280;3510;43.200;27.920;2024-01-16T12:56:59;100604.34;;;8.55;100.00
6942;BME280;3510;43.200;27.920;2024-01-16T12:59:27;100593.38;;;8.44;100.00
6942;BME280;3510;43.200;27.920;2024-01-16T13:01:56;100605.63;;;8.41;100.00
6942;BME280;3510;43.200;27.920;2024-01-16T13:04:22;100551.94;;;8.20;100.00
6942;BME280;3510;43.200;27.920;2024-01-16T13:06:48;100609.44;;;8.46;100.00
6942;BME280;3510;43.200;27.920;2024-01-16T13:09:15;100621.56;;;8.33;100.00
6942;BME280;3510;43.200;27.920;2024-01-16T13:11:49;100495.72;;;7.62;100.00
6942;BME280;3510;43.200;27.920;2024-01-16T13:14:18;100622.81;;;8.28;100.00
6942;BME280;3510;43.200;27.920;2024-01-16T13:16:46;100549.91;;;7.89;100.00
6942;BME280;3510;43.200;27.920;2024-01-16T13:19:16;100637.66;;;8.35;100.00
6942;BME280;3510;43.200;27.920;2024-01-16T13:21:43;100650.09;;;8.25;100.00
6942;BME280;3510;43.200;27.920;2024-01-16T13:24:11;100611.41;;;8.13;100.00
6942;BME280;3510;43.200;27.920;2024-01-16T13:26:38;100626.09;;;8.18;100.00
6942;BME280;3510;43.200;27.920;2024-01-16T13:29:06;100633.78;;;8.11;100.00
6942;BME280;3510;43.200;27.920;2024-01-16T13:31:35;100638.81;;;8.11;100.00
6942;BME280;3510;43.200;27.920;2024-01-16T13:34:02;100653.91;;;8.03;100.00
6942;BME280;3510;43.200;27.920;2024-01-16T13:36:29;100653.25;;;8.14;100.00
6942;BME280;3510;43.200;27.920;2024-01-16T13:38:56;100659.59;;;8.10;100.00
6942;BME280;3510;43.200;27.920;2024-01-16T13:41:24;100712.34;;;8.20;100.00
6942;BME280;3510;43.200;27.920;2024-01-16T13:43:51;100690.28;;;8.08;100.00
6942;BME280;3510;43.200;27.920;2024-01-16T13:46:18;100694.28;;;8.06;100.00
6942;BME280;3510;43.200;27.920;2024-01-16T13:48:47;100694.91;;;7.94;100.00
6942;BME280;3510;43.200;27.920;2024-01-16T13:51:13;100699.50;;;7.90;100.00
6942;BME280;3510;43.200;27.920;2024-01-16T13:53:41;100722.38;;;7.75;100.00
6942;BME280;3510;43.200;27.920;2024-01-16T13:56:08;100733.28;;;7.76;100.00
6942;BME280;3510;43.200;27.920;2024-01-16T13:58:35;100711.34;;;7.65;100.00
6942;BME280;3510;43.200;27.920;2024-01-16T14:01:03;100717.97;;;7.73;100.00